Aérodrome :
LOGIN :

S'inscrire | Disclaimer

   EN    FR    IT 

 










Légende :    VFR   VFR Marginal   IFR   IFR Intensif   IFR Très Intensif
Visi : 
Plafond : 
>= 8 km
>= 3000ft
5 à 8 km
1000 à 3000 ft
1500m à 5 km
500 à 1000 ft
800 à 1500m
200 à 500 ft
< 800m
< 200 ft
Symboles :   Orages  Brouillard  Fortes neiges  Fortes précipitations  Vent > 20 kt
SIGMETs :   Divers  Orages  Givrage  Turbulence  Onde Orograph.  Cendres Volcan.






- Altitude de l'aérodrome : 1470 ft
- Code IATA : KLU


LOWK - Klagenfurt

DERNIER METAR :
  • 180650Z 28003KT 190V300 9999 FEW060 SCT080 BKN100 04/01 Q1024 NOSIG

METARs EXPIRÉS :
  • 180620Z VRB01KT 9999 FEW060 BKN100 03/01 Q1024 NOSIG
  • 180550Z VRB01KT 9999 FEW060 BKN090 04/01 Q1023 NOSIG
  • 180520Z VRB01KT 9999 FEW060 BKN090 04/01 Q1023 NOSIG
  • 180450Z VRB01KT 9999 OVC085 04/01 Q1023 NOSIG
  • 180420Z AUTO 30004KT 9999 SCT070 BKN080 04/01 Q1022

TAF TAF LOWK
Valide du 18 à 06h jusqu'au 19 à 06h UTC


180515Z 1806/1906 VRB02KT 9999 FEW050 SCT080 TX12/1814Z TN01/1906Z
TEMPO 1900/1906 -SHRA SCT050 BKN080



MET'MAP, la Météo Aéronautique d'un coup d'oeil ! - Copyright ORBIFLY Décembre 2007 - Disclaimer

ORBIFLY MET'MAP TEAM :

Programmation & Développement : Alexandra Zaïnal
Sur une idée originale de : Baudouin d'Aumeries
Assistance à la programmation : Marc-Olivier Méhu
Soutien technique & logistique : Manuel Goepfert

Contact : metmap@orbifly.com




SOURCES & CREDITS :

   NOAA